Terminal Aerodrome Forecast
Issued by NWS

Home | Current Version | Previous Version | Text Only | Print | Product List | Glossary On
Versions: 1 2 3 4 5 6 7 8 9 10 11 12 13 14 15
000
FTUS46 KSGX 242045 AAA
TAFCRQ
TAF AMD
KCRQ 242045Z 2421/2518 24009KT P6SM SCT025 BKN040
      TEMPO 2421/2423 BKN025
     FM250200 22006KT P6SM BKN022 OVC035
     FM251000 VRB05KT P6SM BKN017 OVC035
     FM251700 VRB05KT P6SM BKN022 BKN035=

USA.gov is the U.S. government's official web portal to all federal, state and local government web resources and services.